Pagrindinis puslapis
METAR-TAF:

METAR-TAF

Oro uostai :

Kopenhaga, Danija

platuma: 55-37N, ilguma: 012-39E, Aukštis: 5 m

Dabartinis oras

Ataskaita buvo paskelbta 25 minutes, ne 04:50 UTC
Vėjas 1 kt iš Vakarų/Pietvakarių
Temperatūra 11°C
Drėgmė 82%
Slėgis 1031 hPa
Matomumas 10 km arba daugiau

METAR: EKCH 290450Z AUTO 25001KT 9999 NCD 11/08 Q1031 NOSIG

Laikas: 07:15 (05:15 UTC)

Prognozė

Ataskaita buvo paskelbta 6 valandos ir 5 minutes, ne 23:10 UTC
Prognozė galioja nuo 29 metu 00 UTC su 29 metu 24 UTC
Vėjas 4 kt iš Vakarų/Šiaurės Vakarų
Matomumas 10 km arba daugiau
Mažai debesys ne aukštis 4000 ft
Tapsmas
nuo 29 metu 10 UTC su 29 metu 12 UTC
Vėjas 10 kt iš Šiaurės
Tapsmas
nuo 29 metu 20 UTC su 29 metu 23 UTC
Vėjas 3 kt nuo kintamojo kryptimis

TAF: EKCH 282310Z 2900/2924 30004KT 9999 FEW040 BECMG 2910/2912 01010KT BECMG 2920/2923 VRB03KT

Orai ataskaitas ir orų prognozės (METAR, TAF).

turimą stotys yra geltonos ir raudonos taškus žemėlapyje.

Perkelti pele per norėdami pamatyti stoties vardą.

Tada spustelėkite, norėdami matyti oro stebėjimo ir prognozės.

Norėdami pakeisti žemėlapį: spustelėkite ant žalios mygtukų su juodo kryžiaus žemyn,; žalią mygtuką su brūkšneliu, jei norite nutolinti; arba žalių rodyklių gretimoms žemėlapius.


METAR-TAF: